Time;durP1;ratioP1;P1;durP2;ratioP2;P2;SDS_P1;SDS_P2;PMS_P1;PMS_P2;Temp;Humidity;BMP_temperature;BMP_pressure;BME280_temperature;BME280_humidity;BME280_pressure;Samples;Min_cycle;Max_cycle;Signal;HPM_P1;HPM_P2
2023/05/10 00:01:26;;;;;;;47.65;22.88;;;;;;;-143.48;100.00;118439.88;5052884;28;20028;-72
2023/05/10 00:03:51;;;;;;;47.38;23.20;;;;;;;-143.48;100.00;118439.88;5052902;28;20033;-72
2023/05/10 00:06:16;;;;;;;49.15;23.65;;;;;;;-143.48;100.00;118439.88;5052889;28;20024;-70
2023/05/10 00:08:42;;;;;;;53.50;23.98;;;;;;;-143.48;100.00;118439.88;5034922;28;20029;-71
2023/05/10 00:11:07;;;;;;;48.88;22.85;;;;;;;-143.48;100.00;118439.88;5052798;28;20029;-71
2023/05/10 00:13:33;;;;;;;51.33;23.58;;;;;;;-143.48;100.00;118439.88;5052972;28;20047;-71
2023/05/10 00:15:58;;;;;;;46.92;23.50;;;;;;;-143.48;100.00;118439.88;5052865;28;20029;-71
2023/05/10 00:18:23;;;;;;;47.80;22.55;;;;;;;-143.48;100.00;118439.88;5052881;28;20028;-71
2023/05/10 00:20:49;;;;;;;47.20;22.30;;;;;;;-143.48;100.00;118439.88;5052717;28;20024;-71
2023/05/10 00:23:15;;;;;;;49.55;22.33;;;;;;;-143.48;100.00;118439.88;5052895;28;20037;-72
2023/05/10 00:25:40;;;;;;;50.30;22.67;;;;;;;-143.48;100.00;118439.88;5052631;28;20033;-71
2023/05/10 00:28:05;;;;;;;49.85;23.55;;;;;;;-143.48;100.00;118439.88;5034781;28;20067;-71
2023/05/10 00:30:30;;;;;;;46.72;23.17;;;;;;;-143.48;100.00;118439.88;5053196;28;20039;-71
2023/05/10 00:32:56;;;;;;;46.13;22.55;;;;;;;-143.48;100.00;118439.88;5052663;28;20108;-72
2023/05/10 00:35:21;;;;;;;45.70;21.90;;;;;;;-143.48;100.00;118439.88;5052903;28;20028;-71
2023/05/10 00:37:47;;;;;;;46.47;21.38;;;;;;;-143.48;100.00;118439.88;5056464;28;20032;-71
2023/05/10 00:40:12;;;;;;;51.83;23.98;;;;;;;-143.48;100.00;118439.88;5056397;28;20025;-71
2023/05/10 00:42:38;;;;;;;54.58;23.83;;;;;;;-143.48;100.00;118439.88;5038449;28;20035;-71
2023/05/10 00:45:03;;;;;;;54.75;24.30;;;;;;;-143.48;100.00;118439.88;5056507;28;20493;-71
2023/05/10 00:47:29;;;;;;;54.42;25.40;;;;;;;-143.48;100.00;118439.88;5056173;28;20059;-71
2023/05/10 00:49:55;;;;;;;50.92;23.48;;;;;;;-143.48;100.00;118439.88;5056423;28;20024;-71
2023/05/10 00:52:23;;;;;;;53.88;24.38;;;;;;;-143.48;100.00;118439.88;5056239;28;20369;-71
2023/05/10 00:54:49;;;;;;;56.33;25.23;;;;;;;-143.48;100.00;118439.88;5056215;28;20029;-71
2023/05/10 00:57:14;;;;;;;54.67;24.95;;;;;;;-143.48;100.00;118439.88;5038311;28;20036;-71
2023/05/10 00:59:40;;;;;;;52.78;24.30;;;;;;;-143.48;100.00;118439.88;5056043;28;20021;-71
2023/05/10 01:02:06;;;;;;;49.95;25.58;;;;;;;-143.48;100.00;118439.88;5056187;28;20508;-72
2023/05/10 01:04:32;;;;;;;54.17;24.88;;;;;;;-143.48;100.00;118439.88;5055977;28;20388;-71
2023/05/10 01:06:58;;;;;;;49.45;24.15;;;;;;;-143.48;100.00;118439.88;5055957;28;20549;-71
2023/05/10 01:09:26;;;;;;;55.92;25.30;;;;;;;-143.48;100.00;118439.88;5055878;28;20025;-71
2023/05/10 01:11:51;;;;;;;51.08;23.83;;;;;;;-143.48;100.00;118439.88;5055913;28;20053;-72
2023/05/10 01:14:19;;;;;;;51.65;25.05;;;;;;;-143.48;100.00;118439.88;5055815;28;20369;-71
2023/05/10 01:16:47;;;;;;;55.15;25.40;;;;;;;-143.48;100.00;118439.88;5056054;28;20024;-71
2023/05/10 01:19:38;;;;;;;54.05;26.15;;;;;;;-143.48;100.00;118439.88;5055795;28;20040;-72
2023/05/10 01:22:41;;;;;;;54.42;26.02;;;;;;;-143.48;100.00;118439.88;5051738;28;20416;-71
2023/05/10 01:25:09;;;;;;;52.55;25.90;;;;;;;-143.48;100.00;118439.88;5055827;28;20060;-71
2023/05/10 01:28:12;;;;;;;50.03;25.13;;;;;;;-143.48;100.00;118439.88;5037571;28;20111;-72
2023/05/10 01:30:54;;;;;;;50.10;24.73;;;;;;;-143.48;100.00;118439.88;5055545;28;20037;-71
2023/05/10 01:33:26;;;;;;;47.70;24.98;;;;;;;-143.48;100.00;118439.88;5055535;28;20025;-71
2023/05/10 01:36:02;;;;;;;45.17;25.38;;;;;;;-143.48;100.00;118439.88;5055333;28;20025;-72
2023/05/10 01:38:57;;;;;;;49.88;24.75;;;;;;;-143.48;100.00;118439.88;5055283;28;20021;-71
2023/05/10 01:42:02;;;;;;;49.30;24.42;;;;;;;-143.48;100.00;118439.88;5054790;28;20041;-72
2023/05/10 01:44:51;;;;;;;52.28;26.33;;;;;;;-143.48;100.00;118439.88;5055267;28;20044;-71
2023/05/10 01:47:24;;;;;;;51.00;26.77;;;;;;;-143.48;100.00;118439.88;5054656;28;20079;-71
2023/05/10 01:49:53;;;;;;;50.58;26.48;;;;;;;-143.48;100.00;118439.88;5054990;28;20024;-72
2023/05/10 01:52:22;;;;;;;49.88;26.83;;;;;;;-143.48;100.00;118439.88;5055109;28;20397;-70
2023/05/10 01:55:02;;;;;;;56.95;27.45;;;;;;;-143.48;100.00;118439.88;5055146;28;20530;-71
2023/05/10 01:57:33;;;;;;;59.35;28.08;;;;;;;-143.48;100.00;118439.88;5055036;28;20484;-71
2023/05/10 02:00:00;;;;;;;59.05;28.05;;;;;;;-143.48;100.00;118439.88;5054958;28;20017;-71
2023/05/10 02:02:28;;;;;;;62.60;28.80;;;;;;;-143.48;100.00;118439.88;5055023;28;20020;-72
2023/05/10 02:04:55;;;;;;;59.85;29.05;;;;;;;-143.48;100.00;118439.88;5054892;28;20036;-71
2023/05/10 02:07:22;;;;;;;60.90;29.42;;;;;;;-143.48;100.00;118439.88;5054777;28;20020;-71
2023/05/10 02:09:47;;;;;;;62.42;29.35;;;;;;;-143.48;100.00;118439.88;5054661;28;20104;-70
2023/05/10 02:12:15;;;;;;;59.08;28.85;;;;;;;-143.48;100.00;118439.88;5054802;28;20107;-72
2023/05/10 02:14:43;;;;;;;64.82;28.27;;;;;;;-143.48;100.00;118439.88;5036825;28;20025;-71
2023/05/10 02:17:09;;;;;;;63.97;29.30;;;;;;;-143.48;100.00;118439.88;5054602;28;20435;-70
2023/05/10 02:19:38;;;;;;;63.63;28.48;;;;;;;-143.48;100.00;118439.88;5054482;28;20021;-72
2023/05/10 02:22:05;;;;;;;58.70;28.30;;;;;;;-143.48;100.00;118439.88;5054529;28;20051;-70
2023/05/10 02:24:31;;;;;;;62.55;28.25;;;;;;;-143.48;100.00;118439.88;5036530;28;20485;-71
2023/05/10 02:26:58;;;;;;;60.83;28.52;;;;;;;-143.48;100.00;118439.88;5036580;28;20477;-71
2023/05/10 02:29:25;;;;;;;58.28;28.10;;;;;;;-143.48;100.00;118439.88;5054458;28;20048;-72
2023/05/10 02:31:53;;;;;;;57.67;28.08;;;;;;;-143.48;100.00;118439.88;5054337;28;20051;-71
2023/05/10 02:34:21;;;;;;;56.35;27.67;;;;;;;-143.48;100.00;118439.88;5054229;28;20439;-71
2023/05/10 02:36:47;;;;;;;60.75;28.27;;;;;;;-143.48;100.00;118439.88;5036410;28;20485;-71
2023/05/10 02:39:15;;;;;;;55.78;27.48;;;;;;;-143.48;100.00;118439.88;5054248;28;20017;-71
2023/05/10 02:41:42;;;;;;;59.15;28.48;;;;;;;-143.48;100.00;118439.88;5054063;28;20063;-71
2023/05/10 02:44:09;;;;;;;62.33;28.15;;;;;;;-143.48;100.00;118439.88;5054075;28;20025;-71
2023/05/10 02:46:36;;;;;;;55.28;28.30;;;;;;;-143.48;100.00;118439.88;5054200;28;20052;-69
2023/05/10 02:49:03;;;;;;;58.47;28.63;;;;;;;-143.48;100.00;118439.88;5054054;28;20377;-71
2023/05/10 02:51:31;;;;;;;59.35;29.35;;;;;;;-143.48;100.00;118439.88;5054149;28;20090;-70
2023/05/10 02:54:01;;;;;;;58.38;27.63;;;;;;;-143.48;100.00;118439.88;5054133;28;20051;-71
2023/05/10 02:56:34;;;;;;;68.47;28.85;;;;;;;-143.48;100.00;118439.88;5054031;28;20447;-71
2023/05/10 02:58:59;;;;;;;67.32;31.55;;;;;;;-143.48;100.00;118439.88;5053281;28;20380;-71
2023/05/10 03:01:24;;;;;;;61.28;28.10;;;;;;;-143.48;100.00;118439.88;5054199;28;20021;-71
2023/05/10 03:03:50;;;;;;;62.15;29.83;;;;;;;-143.48;100.00;118439.88;5054984;28;20047;-71
2023/05/10 03:06:16;;;;;;;66.60;28.35;;;;;;;-143.48;100.00;118439.88;5054057;28;20476;-72
2023/05/10 03:08:43;;;;;;;61.83;29.80;;;;;;;-143.48;100.00;118439.88;5054013;28;20075;-72
2023/05/10 03:11:22;;;;;;;60.28;30.20;;;;;;;-143.48;100.00;118439.88;5054189;28;20036;-73
2023/05/10 03:14:01;;;;;;;72.35;32.53;;;;;;;-143.48;100.00;118439.88;5054365;28;20413;-72
2023/05/10 03:16:50;;;;;;;72.63;31.63;;;;;;;-143.48;100.00;118439.88;5053804;28;20052;-71
2023/05/10 03:20:02;;;;;;;79.32;31.25;;;;;;;-143.48;100.00;118439.88;5053750;28;20524;-73
2023/05/10 03:22:40;;;;;;;77.18;32.83;;;;;;;-143.48;100.00;118439.88;5053424;28;20025;-72
2023/05/10 03:25:09;;;;;;;91.32;33.58;;;;;;;-143.48;100.00;118439.88;5053681;28;20028;-72
2023/05/10 03:27:38;;;;;;;93.70;31.40;;;;;;;-143.48;100.00;118439.88;5053418;28;20097;-71
2023/05/10 03:30:05;;;;;;;92.50;31.27;;;;;;;-143.48;100.00;118439.88;5053259;28;20029;-72
2023/05/10 03:32:32;;;;;;;82.50;30.75;;;;;;;-143.48;100.00;118439.88;5035452;28;20083;-72
2023/05/10 03:34:57;;;;;;;88.47;31.15;;;;;;;-143.48;100.00;118439.88;5053320;28;20103;-71
2023/05/10 03:37:23;;;;;;;86.07;31.27;;;;;;;-143.48;100.00;118439.88;5053191;28;20048;-72
2023/05/10 03:39:48;;;;;;;94.38;30.73;;;;;;;-143.48;100.00;118439.88;5035313;28;20020;-72
2023/05/10 03:42:13;;;;;;;84.40;29.13;;;;;;;-143.48;100.00;118439.88;5053138;28;20029;-72
2023/05/10 03:44:39;;;;;;;73.53;27.73;;;;;;;-143.48;100.00;118439.88;5053090;28;20066;-71
2023/05/10 03:47:04;;;;;;;69.78;26.20;;;;;;;-143.48;100.00;118439.88;5052337;28;20052;-72
2023/05/10 03:49:30;;;;;;;87.00;28.00;;;;;;;-143.48;100.00;118439.88;5052919;28;20473;-71
2023/05/10 03:51:55;;;;;;;86.07;26.88;;;;;;;-143.48;100.00;118439.88;5053373;28;20047;-72
2023/05/10 03:54:21;;;;;;;70.53;26.05;;;;;;;-143.48;100.00;118439.88;5053101;28;20027;-71
2023/05/10 03:56:47;;;;;;;76.68;28.30;;;;;;;-143.48;100.00;118439.88;5052990;28;20024;-71
2023/05/10 03:59:13;;;;;;;80.13;26.52;;;;;;;-143.48;100.00;118439.88;5053144;28;20032;-72
2023/05/10 04:01:38;;;;;;;68.68;24.67;;;;;;;-143.48;100.00;118439.88;5052092;28;20025;-71
2023/05/10 04:04:03;;;;;;;70.80;24.95;;;;;;;-143.48;100.00;118439.88;5052853;28;20024;-71
2023/05/10 04:06:29;;;;;;;63.53;24.00;;;;;;;-143.48;100.00;118439.88;5035020;28;20025;-71
2023/05/10 04:08:55;;;;;;;68.63;23.38;;;;;;;-143.48;100.00;118439.88;5052911;28;20053;-71
2023/05/10 04:11:21;;;;;;;64.15;24.45;;;;;;;-143.48;100.00;118439.88;5056505;28;20078;-71
2023/05/10 04:13:47;;;;;;;70.70;24.80;;;;;;;-143.48;100.00;118439.88;5056430;28;20025;-71
2023/05/10 04:16:12;;;;;;;68.80;25.42;;;;;;;-143.48;100.00;118439.88;5056188;28;20028;-71
2023/05/10 04:18:39;;;;;;;75.50;27.50;;;;;;;-143.48;100.00;118439.88;5056764;28;20112;-70
2023/05/10 04:21:04;;;;;;;78.45;26.98;;;;;;;-143.48;100.00;118439.88;5056962;28;20028;-70
2023/05/10 04:23:30;;;;;;;79.57;26.25;;;;;;;-143.48;100.00;118439.88;5056685;28;20025;-71
2023/05/10 04:26:01;;;;;;;79.00;25.58;;;;;;;-143.48;100.00;118439.88;5038755;28;20404;-72
2023/05/10 04:28:27;;;;;;;82.25;26.50;;;;;;;-143.48;100.00;118439.88;5038569;28;20039;-71
2023/05/10 04:30:53;;;;;;;72.93;24.55;;;;;;;-143.48;100.00;118439.88;5039335;28;20112;-71
2023/05/10 04:33:18;;;;;;;71.18;24.17;;;;;;;-143.48;100.00;118439.88;5039061;28;20036;-71
2023/05/10 04:35:45;;;;;;;69.97;24.13;;;;;;;-143.48;100.00;118439.88;5056165;28;20079;-71
2023/05/10 04:38:13;;;;;;;79.97;25.05;;;;;;;-143.48;100.00;118439.88;5056467;28;20073;-72
2023/05/10 04:40:38;;;;;;;82.05;24.83;;;;;;;-143.48;100.00;118439.88;5039198;28;20032;-72
2023/05/10 04:43:04;;;;;;;65.13;23.75;;;;;;;-143.48;100.00;118439.88;5056357;28;20425;-70
2023/05/10 04:45:29;;;;;;;72.60;24.95;;;;;;;-143.48;100.00;118439.88;5056287;28;20036;-71
2023/05/10 04:47:55;;;;;;;73.90;25.73;;;;;;;-143.48;100.00;118439.88;5056085;28;20075;-70
2023/05/10 04:50:20;;;;;;;73.07;26.20;;;;;;;-143.48;100.00;118439.88;5056183;28;20036;-72
2023/05/10 04:52:45;;;;;;;77.32;27.70;;;;;;;-143.48;100.00;118439.88;5056049;28;20384;-70
2023/05/10 04:55:11;;;;;;;66.82;25.83;;;;;;;-143.48;100.00;118439.88;5056141;28;20047;-70
2023/05/10 04:57:36;;;;;;;69.50;26.17;;;;;;;-143.48;100.00;118439.88;5038329;28;20064;-71
2023/05/10 05:00:01;;;;;;;70.57;25.95;;;;;;;-143.48;100.00;118439.88;5038186;28;20025;-71
2023/05/10 05:02:27;;;;;;;66.22;25.27;;;;;;;-143.48;100.00;118439.88;5056088;28;20029;-70
2023/05/10 05:04:52;;;;;;;56.35;25.42;;;;;;;-143.48;100.00;118439.88;5056043;28;20524;-70
2023/05/10 05:07:17;;;;;;;54.28;23.70;;;;;;;-143.48;100.00;118439.88;5055749;28;20112;-70
2023/05/10 05:09:43;;;;;;;56.58;25.17;;;;;;;-143.48;100.00;118439.88;5055809;28;20055;-71
2023/05/10 05:12:13;;;;;;;56.60;24.52;;;;;;;-143.48;100.00;118439.88;5056001;28;20499;-71
2023/05/10 05:14:38;;;;;;;58.78;25.33;;;;;;;-143.48;100.00;118439.88;5055776;28;20024;-70
2023/05/10 05:17:04;;;;;;;57.70;24.42;;;;;;;-143.48;100.00;118439.88;5055647;28;20021;-70
2023/05/10 05:19:31;;;;;;;56.03;22.48;;;;;;;-143.48;100.00;118439.88;5055482;28;20017;-72
2023/05/10 05:21:56;;;;;;;55.47;22.27;;;;;;;-143.48;100.00;118439.88;5036853;28;20021;-71
2023/05/10 05:24:21;;;;;;;49.50;21.10;;;;;;;-143.48;100.00;118439.88;5055615;28;20033;-70
2023/05/10 05:26:47;;;;;;;43.67;18.95;;;;;;;-143.48;100.00;118439.88;5055491;28;20025;-71
2023/05/10 05:29:12;;;;;;;38.90;17.63;;;;;;;-143.48;100.00;118439.88;5055205;28;20516;-70
2023/05/10 05:31:37;;;;;;;36.65;17.40;;;;;;;-143.48;100.00;118439.88;5055076;28;20171;-71
2023/05/10 05:34:03;;;;;;;37.42;16.83;;;;;;;-143.48;100.00;118439.88;5055120;28;20029;-71
2023/05/10 05:36:28;;;;;;;43.13;17.13;;;;;;;-143.48;100.00;118439.88;5037166;28;20024;-72
2023/05/10 05:38:53;;;;;;;35.08;15.88;;;;;;;-143.48;100.00;118439.88;5055179;28;20078;-71
2023/05/10 05:41:19;;;;;;;34.83;16.02;;;;;;;-143.48;100.00;118439.88;5055130;28;20028;-72
2023/05/10 05:43:45;;;;;;;35.75;15.75;;;;;;;-143.48;100.00;118439.88;5055158;28;20024;-72
2023/05/10 05:46:10;;;;;;;30.98;15.32;;;;;;;-143.48;100.00;118439.88;5055036;28;20484;-70
2023/05/10 05:48:35;;;;;;;39.55;16.10;;;;;;;-143.48;100.00;118439.88;5054984;28;20024;-71
2023/05/10 05:51:01;;;;;;;30.00;15.10;;;;;;;-143.48;100.00;118439.88;5055340;28;20433;-71
2023/05/10 05:53:26;;;;;;;35.35;16.40;;;;;;;-143.48;100.00;118439.88;5036971;28;20029;-71
2023/05/10 05:55:57;;;;;;;31.75;15.15;;;;;;;-143.48;100.00;118439.88;5055067;28;20104;-73
2023/05/10 05:58:22;;;;;;;28.38;13.98;;;;;;;-143.48;100.00;118439.88;5054943;28;20035;-71
2023/05/10 06:00:48;;;;;;;28.27;13.70;;;;;;;-143.48;100.00;118439.88;5054793;28;20489;-71
2023/05/10 06:03:13;;;;;;;30.63;13.55;;;;;;;-143.48;100.00;118439.88;5054705;28;20117;-71
2023/05/10 06:05:38;;;;;;;24.60;12.77;;;;;;;-143.48;100.00;118439.88;5054824;28;20029;-72
2023/05/10 06:08:04;;;;;;;37.85;12.98;;;;;;;-143.48;100.00;118439.88;5037054;28;20032;-71
2023/05/10 06:10:30;;;;;;;28.27;12.68;;;;;;;-143.48;100.00;118439.88;5054496;28;20208;-71
2023/05/10 06:12:55;;;;;;;25.10;13.05;;;;;;;-143.48;100.00;118439.88;5054468;28;20025;-71
2023/05/10 06:15:21;;;;;;;33.00;14.00;;;;;;;-143.48;100.00;118439.88;5036715;28;20079;-72
2023/05/10 06:17:51;;;;;;;37.33;15.18;;;;;;;-143.48;100.00;118439.88;5054463;28;20358;-72
2023/05/10 06:20:17;;;;;;;39.80;15.95;;;;;;;-143.48;100.00;118439.88;5054439;28;20024;-73
2023/05/10 06:22:42;;;;;;;42.65;16.13;;;;;;;-143.48;100.00;118439.88;5054390;28;20025;-72
2023/05/10 06:25:08;;;;;;;42.30;15.93;;;;;;;-143.48;100.00;118439.88;5054353;28;20029;-72
2023/05/10 06:27:33;;;;;;;44.92;16.90;;;;;;;-143.48;100.00;118439.88;5054393;28;20017;-72
2023/05/10 06:29:59;;;;;;;44.47;16.45;;;;;;;-143.48;100.00;118439.88;5054343;28;20031;-72
2023/05/10 06:32:24;;;;;;;47.97;17.30;;;;;;;-143.48;100.00;118439.88;5054258;28;20435;-72
2023/05/10 06:34:49;;;;;;;39.88;15.85;;;;;;;-143.48;100.00;118439.88;5054136;28;20031;-71
2023/05/10 06:37:15;;;;;;;40.67;15.38;;;;;;;-143.48;100.00;118439.88;5036242;28;20067;-71
2023/05/10 06:39:40;;;;;;;36.42;14.82;;;;;;;-143.48;100.00;118439.88;5054052;28;20380;-72
2023/05/10 06:42:05;;;;;;;33.40;14.93;;;;;;;-143.48;100.00;118439.88;5036125;28;20074;-72
2023/05/10 06:44:31;;;;;;;37.05;15.75;;;;;;;-143.48;100.00;118439.88;5054190;28;20067;-74
2023/05/10 06:46:56;;;;;;;38.20;15.30;;;;;;;-143.48;100.00;118439.88;5053922;28;20133;-71
2023/05/10 06:49:21;;;;;;;38.13;15.77;;;;;;;-143.48;100.00;118439.88;5036127;28;20052;-72
2023/05/10 06:51:48;;;;;;;32.05;14.85;;;;;;;-143.48;100.00;118439.88;5055150;28;20032;-72
2023/05/10 06:54:13;;;;;;;32.38;14.68;;;;;;;-143.48;100.00;118439.88;5054278;28;20411;-71
2023/05/10 06:56:38;;;;;;;30.80;13.65;;;;;;;-143.48;100.00;118439.88;5035918;28;20024;-71
2023/05/10 06:59:04;;;;;;;34.70;14.52;;;;;;;-143.48;100.00;118439.88;5053850;28;20159;-71
2023/05/10 07:01:29;;;;;;;29.48;13.75;;;;;;;-143.48;100.00;118439.88;5035553;28;20025;-71
2023/05/10 07:03:54;;;;;;;34.63;13.70;;;;;;;-143.48;100.00;118439.88;5053445;28;20090;-71
2023/05/10 07:06:19;;;;;;;30.45;13.25;;;;;;;-143.48;100.00;118439.88;5053407;28;20027;-71
2023/05/10 07:08:45;;;;;;;26.42;13.30;;;;;;;-143.48;100.00;118439.88;5051651;28;20029;-71
2023/05/10 07:11:10;;;;;;;24.05;12.80;;;;;;;-143.48;100.00;118439.88;5052081;28;20059;-70
2023/05/10 07:13:36;;;;;;;24.05;12.93;;;;;;;-143.48;100.00;118439.88;5052214;28;20033;-72
2023/05/10 07:16:02;;;;;;;25.27;13.23;;;;;;;-143.48;100.00;118439.88;5053218;28;20496;-73
2023/05/10 07:18:27;;;;;;;24.38;13.15;;;;;;;-143.48;100.00;118439.88;5053411;28;20115;-72
2023/05/10 07:20:53;;;;;;;25.95;13.00;;;;;;;-143.48;100.00;118439.88;5053315;28;20021;-73
2023/05/10 07:23:19;;;;;;;26.92;12.95;;;;;;;-143.48;100.00;118439.88;5053348;28;20082;-71
2023/05/10 07:25:45;;;;;;;24.50;12.23;;;;;;;-143.48;100.00;118439.88;5053260;28;20056;-71
2023/05/10 07:28:11;;;;;;;24.27;12.85;;;;;;;-143.48;100.00;118439.88;5035355;28;20028;-70
2023/05/10 07:30:36;;;;;;;24.60;13.60;;;;;;;-143.48;100.00;118439.88;5052957;28;20033;-68
2023/05/10 07:33:01;;;;;;;28.35;12.70;;;;;;;-143.48;100.00;118439.88;5053064;28;20111;-67
2023/05/10 07:35:27;;;;;;;27.10;12.63;;;;;;;-143.48;100.00;118439.88;5053208;28;20021;-68
2023/05/10 07:37:52;;;;;;;24.63;11.90;;;;;;;-143.48;100.00;118439.88;5053093;28;20380;-69
2023/05/10 07:40:17;;;;;;;24.00;12.13;;;;;;;-143.48;100.00;118439.88;5052931;28;20047;-67
2023/05/10 07:42:42;;;;;;;25.33;12.95;;;;;;;-143.48;100.00;118439.88;5053018;28;20029;-67
2023/05/10 07:45:08;;;;;;;21.83;12.10;;;;;;;-143.48;100.00;118439.88;5052562;28;20025;-68
2023/05/10 07:47:34;;;;;;;23.15;12.00;;;;;;;-143.48;100.00;118439.88;5052801;28;20053;-67
2023/05/10 07:49:59;;;;;;;27.15;12.73;;;;;;;-143.48;100.00;118439.88;5053000;28;20032;-68
2023/05/10 07:52:24;;;;;;;23.10;12.07;;;;;;;-143.48;100.00;118439.88;5034961;28;20025;-68
2023/05/10 07:54:50;;;;;;;21.90;12.65;;;;;;;-143.48;100.00;118439.88;5052913;28;20028;-68
2023/05/10 07:57:17;;;;;;;28.35;13.50;;;;;;;-143.48;100.00;118439.88;5052911;28;20174;-67
2023/05/10 07:59:43;;;;;;;22.67;13.02;;;;;;;-143.48;100.00;118439.88;5034855;28;20108;-67
2023/05/10 08:02:08;;;;;;;24.80;13.02;;;;;;;-143.48;100.00;118439.88;5052769;28;20095;-67
2023/05/10 08:04:33;;;;;;;26.58;12.85;;;;;;;-143.48;100.00;118439.88;5052693;28;20040;-69
2023/05/10 08:06:58;;;;;;;25.20;12.70;;;;;;;-143.48;100.00;118439.88;5052666;28;20548;-68
2023/05/10 08:09:24;;;;;;;22.98;11.43;;;;;;;-143.48;100.00;118439.88;5052603;28;20025;-69
2023/05/10 08:11:50;;;;;;;22.05;11.77;;;;;;;-143.48;100.00;118439.88;5052099;28;20491;-68
2023/05/10 08:14:16;;;;;;;17.83;10.15;;;;;;;-143.48;100.00;118439.88;5052535;28;20087;-67
2023/05/10 08:16:41;;;;;;;30.00;11.30;;;;;;;-143.48;100.00;118439.88;5052938;28;20025;-67
2023/05/10 08:19:07;;;;;;;19.10;10.85;;;;;;;-143.48;100.00;118439.88;5052555;28;20013;-68
2023/05/10 08:21:32;;;;;;;18.27;10.52;;;;;;;-143.48;99.91;118439.88;5052622;28;20087;-68
2023/05/10 08:23:57;;;;;;;19.50;10.60;;;;;;;-143.48;99.68;118439.88;5052684;28;20107;-68
2023/05/10 08:26:23;;;;;;;17.58;10.55;;;;;;;-143.48;100.00;118439.88;5051490;28;20025;-68
2023/05/10 08:28:48;;;;;;;20.58;10.68;;;;;;;-143.48;99.69;118439.88;5052487;28;20108;-67
2023/05/10 08:31:15;;;;;;;18.65;10.45;;;;;;;-143.48;99.45;118439.88;5052529;28;20024;-68
2023/05/10 08:33:40;;;;;;;16.15;8.27;;;;;;;-143.48;98.02;118439.88;5052587;28;20024;-67
2023/05/10 08:36:06;;;;;;;12.80;8.18;;;;;;;-143.48;97.08;118439.88;5034514;28;20468;-67
2023/05/10 08:38:31;;;;;;;16.98;8.68;;;;;;;-143.48;97.37;118439.88;5052558;28;20029;-68
2023/05/10 08:40:58;;;;;;;11.70;7.43;;;;;;;-143.48;97.74;118439.88;5052520;28;20100;-68
2023/05/10 08:43:28;;;;;;;12.90;7.60;;;;;;;-143.48;95.49;118439.88;5034512;28;20546;-68
2023/05/10 08:45:54;;;;;;;16.10;8.18;;;;;;;-143.48;98.04;118439.88;5052702;28;20028;-68
2023/05/10 08:48:22;;;;;;;15.80;8.50;;;;;;;-143.48;97.53;118439.88;5052293;28;20053;-68
2023/05/10 08:50:49;;;;;;;13.93;8.60;;;;;;;-143.48;94.41;118439.88;5052383;28;20029;-68
2023/05/10 08:53:16;;;;;;;11.80;7.70;;;;;;;-143.48;93.11;118439.88;5034574;28;20048;-68
2023/05/10 08:55:42;;;;;;;12.15;7.43;;;;;;;-143.48;93.71;118439.88;5052373;28;20036;-68
2023/05/10 08:58:09;;;;;;;14.50;8.23;;;;;;;-143.48;92.58;118439.88;5055318;28;20025;-67
2023/05/10 09:00:35;;;;;;;15.10;8.30;;;;;;;-143.48;90.99;118439.88;5055610;28;20030;-68
2023/05/10 09:03:03;;;;;;;17.40;8.68;;;;;;;-143.48;90.87;118439.88;5054827;28;20036;-68
2023/05/10 09:05:28;;;;;;;14.18;8.95;;;;;;;-143.48;92.88;118439.88;5037936;28;20049;-67
2023/05/10 09:07:54;;;;;;;14.00;8.65;;;;;;;-143.48;94.50;118439.88;5055332;28;20055;-68
2023/05/10 09:10:20;;;;;;;16.00;8.98;;;;;;;-143.48;96.08;118439.88;5053634;28;20107;-68
2023/05/10 09:12:47;;;;;;;15.35;8.63;;;;;;;-143.48;95.65;118439.88;5035612;28;20028;-68
2023/05/10 09:15:15;;;;;;;20.60;9.05;;;;;;;-143.48;95.28;118439.88;5053585;28;20039;-67
2023/05/10 09:17:43;;;;;;;13.93;8.00;;;;;;;-143.48;93.09;118439.88;5053429;28;20027;-68
2023/05/10 09:20:09;;;;;;;17.23;8.48;;;;;;;-143.48;94.04;118439.88;5053335;28;20499;-68
2023/05/10 09:22:35;;;;;;;12.15;7.78;;;;;;;-143.48;92.90;118439.88;5053568;28;20100;-69
2023/05/10 09:25:12;;;;;;;14.05;7.85;;;;;;;-143.48;91.75;118439.88;5055278;28;20098;-68
2023/05/10 09:27:39;;;;;;;13.00;7.57;;;;;;;-143.48;90.58;118439.88;5055447;28;20029;-66
2023/05/10 09:30:06;;;;;;;14.77;8.90;;;;;;;-143.48;91.10;118439.88;5055279;28;20025;-67
2023/05/10 09:32:46;;;;;;;16.17;7.90;;;;;;;-143.48;89.44;118439.88;5054515;28;20059;-67
2023/05/10 09:35:20;;;;;;;16.63;8.52;;;;;;;-143.48;93.76;118439.88;5036672;28;20456;-67
2023/05/10 09:37:56;;;;;;;14.10;7.13;;;;;;;-143.48;85.38;118439.88;5055275;28;20029;-67
2023/05/10 09:40:24;;;;;;;12.65;7.30;;;;;;;-143.48;86.27;118439.88;5055245;28;20024;-68
2023/05/10 09:43:08;;;;;;;10.57;5.72;;;;;;;-143.48;83.77;118439.88;5055253;28;20159;-67
2023/05/10 09:45:35;;;;;;;12.45;6.60;;;;;;;-143.48;85.75;118439.88;5037282;28;20017;-67
2023/05/10 09:48:02;;;;;;;8.98;5.65;;;;;;;-143.48;80.79;118439.88;5054889;28;20546;-68
2023/05/10 09:50:29;;;;;;;8.05;5.60;;;;;;;-143.48;82.12;118439.88;5055079;28;20053;-68
2023/05/10 09:52:58;;;;;;;10.00;6.43;;;;;;;-143.48;84.57;118439.88;5055317;28;20044;-68
2023/05/10 09:55:49;;;;;;;8.95;5.90;;;;;;;-143.48;88.47;118439.88;5054927;28;20538;-68
2023/05/10 09:58:14;;;;;;;10.40;5.65;;;;;;;-143.48;84.63;118439.88;5037220;28;20439;-68
2023/05/10 10:00:42;;;;;;;9.18;5.03;;;;;;;-143.48;83.00;118439.88;5054629;28;20025;-68
2023/05/10 10:03:14;;;;;;;9.82;5.47;;;;;;;-143.48;82.26;118439.88;5053285;28;20025;-67
2023/05/10 10:05:40;;;;;;;10.47;4.87;;;;;;;-143.48;83.18;118439.88;5054645;28;20021;-68
2023/05/10 10:08:06;;;;;;;7.68;4.93;;;;;;;-143.48;82.75;118439.88;5054055;28;20445;-68
2023/05/10 10:10:32;;;;;;;9.95;5.05;;;;;;;-143.48;81.63;118439.88;5052687;28;20116;-68
2023/05/10 10:12:58;;;;;;;7.45;4.57;;;;;;;-143.48;81.61;118439.88;5053045;28;20378;-68
2023/05/10 10:15:24;;;;;;;9.23;4.50;;;;;;;-143.48;82.46;118439.88;5052697;28;20029;-69
2023/05/10 10:17:51;;;;;;;7.03;4.70;;;;;;;-143.48;86.10;118439.88;5052742;28;20036;-68
2023/05/10 10:20:18;;;;;;;8.75;4.82;;;;;;;-143.48;86.15;118439.88;5052489;28;20124;-68
2023/05/10 10:22:43;;;;;;;9.60;4.65;;;;;;;-143.48;84.29;118439.88;5052511;28;20079;-69
2023/05/10 10:25:11;;;;;;;9.38;4.18;;;;;;;-143.48;81.87;118439.88;5054277;28;20436;-68
2023/05/10 10:27:48;;;;;;;7.05;3.72;;;;;;;-143.48;81.78;118439.88;5054391;28;20032;-68
2023/05/10 10:30:20;;;;;;;6.32;3.83;;;;;;;-143.48;79.72;118439.88;5036409;28;20031;-68
2023/05/10 10:32:54;;;;;;;9.80;4.10;;;;;;;-143.48;80.20;118439.88;5054265;28;20036;-68
2023/05/10 10:35:20;;;;;;;10.10;4.55;;;;;;;-143.48;84.71;118439.88;5054227;28;20128;-67
2023/05/10 10:37:47;;;;;;;6.20;3.38;;;;;;;-143.48;84.37;118439.88;5053276;28;20108;-69
2023/05/10 10:40:28;;;;;;;4.60;3.22;;;;;;;-143.48;81.95;118439.88;5054143;28;20535;-68
2023/05/10 10:42:54;;;;;;;4.80;3.25;;;;;;;-143.48;82.13;118439.88;5054167;28;20021;-68
2023/05/10 10:45:21;;;;;;;6.35;3.45;;;;;;;-143.48;79.43;118439.88;5054128;28;20036;-68
2023/05/10 10:47:46;;;;;;;5.53;3.17;;;;;;;-143.48;81.41;118439.88;5053797;28;20150;-68
2023/05/10 10:50:15;;;;;;;8.15;3.30;;;;;;;-143.48;80.39;118439.88;5053727;28;20449;-68
2023/05/10 10:52:43;;;;;;;7.70;3.53;;;;;;;-143.48;84.80;118439.88;5053941;28;20024;-68